Strona główna
METAR-TAF:

METAR-TAF

Lotnisko :

Holland, Michigan, Stany Zjednoczone

Szerokość geograficzna: 42-44-46N, Długość geograficzna: 086-05-48W, wysokość: 209 m

Aktualna obserwacja pogody

Raport powstał 48 minut temu, godzina 00:53 UTC
Wiatr 10 kt od zachodnio-południowy zachód
Temperatura 27°C
Wilgotność 79%
Ciśnienie 1010 hPa
Widzialność: 16.1 km
Przerywane chmury na wysokości 8500 ft

METAR: KBIV 190053Z AUTO 24010KT 10SM BKN085 27/23 A2982 RMK AO2 SLP091 T02720228 $

czas: 21:41 (01:41 UTC)


TAF: brakujący

Obserwacja i prognoza pogody dla ponad 4000 lotnisk (raport METAR i TAF).

Dostępne stacje oznaczono żółtymi i czerwonymi punktami na mapie.

Najedź kursorem aby zobaczyć nazwę stacji.

Kliknij aby zobaczyć obserwacje i prognozy pogody.

Aby zmienić mapę: kliknij na zielony przycisk z czarnym krzyżykiem, aby powiększyć; na zielony przycisk z myślnikiem, aby pomniejszyć; na zielone strzałki, aby przejść do map sąsiednich.


METAR-TAF: